Time;durP1;ratioP1;P1;durP2;ratioP2;P2;SDS_P1;SDS_P2;PMS_P1;PMS_P2;Temp;Humidity;BMP_temperature;BMP_pressure;BME280_temperature;BME280_humidity;BME280_pressure;Samples;Min_cycle;Max_cycle;Signal;HPM_P1;HPM_P2
2022/03/22 00:02:01;;;;;;;24.40;15.00;;;13.30;91.20;;;;;;6278741;22;20214;-82
2022/03/22 00:04:27;;;;;;;26.20;16.37;;;13.20;91.50;;;;;;6279144;22;20228;-82
2022/03/22 00:06:52;;;;;;;24.33;15.80;;;13.20;91.30;;;;;;6279256;22;20215;-83
2022/03/22 00:09:18;;;;;;;24.43;16.10;;;13.10;91.70;;;;;;6279596;22;20145;-82
2022/03/22 00:11:44;;;;;;;22.33;15.33;;;12.90;92.10;;;;;;6306330;22;20633;-82
2022/03/22 00:14:09;;;;;;;24.67;14.97;;;13.00;92.00;;;;;;6279197;22;20161;-81
2022/03/22 00:16:36;;;;;;;20.33;14.63;;;13.00;92.00;;;;;;6306895;22;20133;-82
2022/03/22 00:19:02;;;;;;;20.60;14.60;;;13.00;92.00;;;;;;6306284;22;20568;-81
2022/03/22 00:21:28;;;;;;;25.90;15.43;;;13.10;91.80;;;;;;6279270;22;20157;-81
2022/03/22 00:23:54;;;;;;;22.33;14.43;;;13.10;91.90;;;;;;6306635;22;20149;-82
2022/03/22 00:26:20;;;;;;;23.10;14.63;;;13.00;92.10;;;;;;6279344;22;20543;-82
2022/03/22 00:28:46;;;;;;;24.33;14.63;;;13.10;92.10;;;;;;6279604;22;20166;-82
2022/03/22 00:31:12;;;;;;;23.77;14.63;;;13.20;91.70;;;;;;6307057;22;20136;-82
2022/03/22 00:33:37;;;;;;;22.67;15.67;;;13.30;91.30;;;;;;6279221;22;20217;-82
2022/03/22 00:36:04;;;;;;;23.20;14.97;;;13.10;91.70;;;;;;6279292;22;20184;-82
2022/03/22 00:38:29;;;;;;;22.07;14.80;;;13.00;92.10;;;;;;6306820;22;20138;-82
2022/03/22 00:40:55;;;;;;;20.13;14.33;;;13.00;92.30;;;;;;6279515;22;20152;-82
2022/03/22 00:43:21;;;;;;;18.47;14.70;;;13.00;92.30;;;;;;6279329;22;20217;-82
2022/03/22 00:45:48;;;;;;;27.23;15.53;;;12.80;92.70;;;;;;6279412;22;20149;-82
2022/03/22 00:48:14;;;;;;;22.23;14.13;;;12.90;92.60;;;;;;6278997;22;20153;-82
2022/03/22 00:50:47;;;;;;;22.77;15.23;;;12.70;93.00;;;;;;6306872;22;20137;-81
2022/03/22 00:53:13;;;;;;;20.57;14.63;;;12.60;93.20;;;;;;6306561;22;20134;-82
2022/03/22 00:55:40;;;;;;;21.90;14.47;;;12.50;93.50;;;;;;6279810;22;20183;-82
2022/03/22 00:58:06;;;;;;;21.50;14.77;;;12.50;93.60;;;;;;6279347;22;20244;-82
2022/03/22 01:00:33;;;;;;;21.63;15.23;;;12.50;93.70;;;;;;6306709;22;20133;-82
2022/03/22 01:03:00;;;;;;;25.73;15.03;;;12.60;93.40;;;;;;6278819;22;20162;-82
2022/03/22 01:05:27;;;;;;;26.13;15.67;;;12.50;93.50;;;;;;6279478;22;20215;-82
2022/03/22 01:07:55;;;;;;;23.17;14.80;;;12.60;93.50;;;;;;6279087;22;20185;-83
2022/03/22 01:10:23;;;;;;;21.97;14.70;;;12.50;93.60;;;;;;6279198;22;20160;-82
2022/03/22 01:12:49;;;;;;;23.20;15.17;;;12.50;93.70;;;;;;6307031;22;20192;-82
2022/03/22 01:15:21;;;;;;;24.30;15.40;;;12.50;93.70;;;;;;6281708;22;20147;-82
2022/03/22 01:17:48;;;;;;;26.23;15.27;;;12.60;93.60;;;;;;6280745;22;20236;-82
2022/03/22 01:20:16;;;;;;;21.47;14.47;;;12.70;93.50;;;;;;6281179;22;20148;-82
2022/03/22 01:22:44;;;;;;;25.90;15.90;;;12.60;93.70;;;;;;6308616;22;20279;-82
2022/03/22 01:25:13;;;;;;;26.53;15.57;;;12.50;93.90;;;;;;6281332;22;20400;-82
2022/03/22 01:27:40;;;;;;;26.80;15.13;;;12.40;94.20;;;;;;6308413;22;20171;-82
2022/03/22 01:30:07;;;;;;;26.33;15.50;;;12.40;94.20;;;;;;6281072;22;20171;-82
2022/03/22 01:32:34;;;;;;;26.93;15.23;;;12.30;94.40;;;;;;6308078;22;20180;-81
2022/03/22 01:35:01;;;;;;;24.20;15.40;;;12.40;94.40;;;;;;6308259;22;20137;-81
2022/03/22 01:37:26;;;;;;;22.53;15.07;;;12.30;94.50;;;;;;6280027;22;20149;-82
2022/03/22 01:39:52;;;;;;;24.47;15.03;;;12.30;94.60;;;;;;6280967;22;20235;-81
2022/03/22 01:42:18;;;;;;;23.63;14.13;;;12.50;94.20;;;;;;6281497;22;20271;-82
2022/03/22 01:44:43;;;;;;;23.53;15.20;;;12.60;93.70;;;;;;6280900;22;20152;-82
2022/03/22 01:47:10;;;;;;;29.70;16.00;;;12.50;93.90;;;;;;6307821;22;20203;-82
2022/03/22 01:49:36;;;;;;;25.73;14.53;;;12.60;93.70;;;;;;6280685;22;20549;-82
2022/03/22 01:52:04;;;;;;;23.87;14.47;;;12.40;94.00;;;;;;6280944;22;20180;-82
2022/03/22 01:54:30;;;;;;;23.00;14.40;;;12.40;94.30;;;;;;6280767;22;20206;-81
2022/03/22 01:56:55;;;;;;;22.07;14.03;;;12.30;94.30;;;;;;6280987;22;20152;-82
2022/03/22 01:59:21;;;;;;;24.23;14.30;;;12.40;94.20;;;;;;6307817;22;20137;-81
2022/03/22 02:07:18;;;;;;;20.43;13.30;;;12.70;93.20;;;;;;6308119;22;20514;-81
2022/03/22 02:09:43;;;;;;;20.50;13.63;;;12.60;92.80;;;;;;6280777;22;20476;-81
2022/03/22 02:12:09;;;;;;;17.40;12.73;;;12.50;93.40;;;;;;6307965;22;20134;-80
2022/03/22 02:14:35;;;;;;;18.30;12.00;;;12.70;92.50;;;;;;6307456;22;20496;-82
2022/03/22 02:17:08;;;;;;;15.87;11.53;;;12.60;92.60;;;;;;6280376;22;20567;-81
2022/03/22 02:19:37;;;;;;;20.83;13.10;;;12.60;92.50;;;;;;6279409;22;20154;-82
2022/03/22 02:22:08;;;;;;;18.10;12.17;;;12.50;92.20;;;;;;6306621;22;20133;-82
2022/03/22 02:24:34;;;;;;;21.97;11.67;;;12.30;93.00;;;;;;6280156;22;20527;-83
2022/03/22 02:27:00;;;;;;;14.43;10.53;;;12.60;91.90;;;;;;6279149;22;20209;-81
2022/03/22 02:29:25;;;;;;;22.13;14.10;;;12.60;91.80;;;;;;6279796;22;20147;-82
2022/03/22 02:31:54;;;;;;;20.63;13.70;;;12.60;92.10;;;;;;6280745;22;20154;-81
2022/03/22 02:34:19;;;;;;;18.57;13.20;;;12.40;92.80;;;;;;6307917;22;20196;-82
2022/03/22 02:36:45;;;;;;;22.03;12.83;;;12.50;92.60;;;;;;6307961;22;20143;-82
2022/03/22 02:39:10;;;;;;;22.93;14.00;;;12.20;93.50;;;;;;6307589;22;20158;-82
2022/03/22 02:41:36;;;;;;;19.17;14.20;;;11.90;94.40;;;;;;6280525;22;20148;-82
2022/03/22 02:44:02;;;;;;;23.73;15.30;;;11.80;94.80;;;;;;6280159;22;20151;-82
2022/03/22 02:46:27;;;;;;;20.40;14.07;;;11.60;95.20;;;;;;6280456;22;20178;-81
2022/03/22 02:48:54;;;;;;;22.07;15.07;;;11.70;95.20;;;;;;6280165;22;20149;-81
2022/03/22 02:51:20;;;;;;;20.33;13.70;;;11.50;95.20;;;;;;6307647;22;20157;-82
2022/03/22 02:53:45;;;;;;;18.23;13.23;;;11.50;95.10;;;;;;6307918;22;20154;-82
2022/03/22 02:56:11;;;;;;;20.03;13.07;;;11.60;95.00;;;;;;6280280;22;20154;-82
2022/03/22 02:58:37;;;;;;;18.63;12.70;;;11.50;95.10;;;;;;6280088;22;20485;-82
2022/03/22 03:01:02;;;;;;;21.07;12.87;;;11.40;95.20;;;;;;6280035;22;20290;-83
2022/03/22 03:03:28;;;;;;;24.07;12.50;;;11.40;95.40;;;;;;6307722;22;20134;-82
2022/03/22 03:05:53;;;;;;;18.23;12.30;;;11.60;94.60;;;;;;6279962;22;20697;-84
2022/03/22 03:08:19;;;;;;;17.70;11.87;;;11.60;94.50;;;;;;6280241;22;20229;-82
2022/03/22 03:10:46;;;;;;;17.90;11.37;;;11.70;94.70;;;;;;6307282;22;20131;-83
2022/03/22 03:13:12;;;;;;;17.53;12.07;;;11.60;94.20;;;;;;6306845;22;20162;-81
2022/03/22 03:15:39;;;;;;;19.53;11.90;;;11.70;94.30;;;;;;6307469;22;20154;-82
2022/03/22 03:18:04;;;;;;;19.23;12.33;;;11.90;93.70;;;;;;6307363;22;20207;-81
2022/03/22 03:20:30;;;;;;;15.67;10.30;;;12.10;93.40;;;;;;6307173;22;20135;-82
2022/03/22 03:22:56;;;;;;;13.60;9.27;;;12.20;92.60;;;;;;6279957;22;20645;-82
2022/03/22 03:25:22;;;;;;;16.60;9.10;;;12.20;91.90;;;;;;6279992;22;20211;-82
2022/03/22 03:27:47;;;;;;;15.60;11.20;;;12.20;91.80;;;;;;6279837;22;20609;-82
2022/03/22 03:30:14;;;;;;;18.73;10.80;;;12.20;91.90;;;;;;6279629;22;20163;-83
2022/03/22 03:32:39;;;;;;;14.97;11.00;;;12.10;92.20;;;;;;6279871;22;20466;-81
2022/03/22 03:35:05;;;;;;;16.20;9.20;;;12.10;92.00;;;;;;6279696;22;20151;-82
2022/03/22 03:37:35;;;;;;;13.87;10.13;;;11.90;92.30;;;;;;6279782;22;20148;-81
2022/03/22 03:40:02;;;;;;;14.70;9.53;;;12.00;91.90;;;;;;6279625;22;20192;-82
2022/03/22 03:42:27;;;;;;;15.77;9.93;;;11.80;92.20;;;;;;6307101;22;20139;-82
2022/03/22 03:47:37;;;;;;;15.30;8.67;;;11.90;91.90;;;;;;6307331;22;20239;-81
2022/03/22 03:50:05;;;;;;;13.40;8.40;;;11.90;91.50;;;;;;6279630;22;20224;-82
2022/03/22 03:52:33;;;;;;;14.53;9.27;;;12.00;91.20;;;;;;6279546;22;20173;-82
2022/03/22 03:55:03;;;;;;;14.83;9.13;;;12.10;91.00;;;;;;6279941;22;20185;-81
2022/03/22 03:57:29;;;;;;;13.27;8.47;;;12.00;91.00;;;;;;6306795;22;20134;-82
2022/03/22 03:59:56;;;;;;;12.93;8.23;;;12.10;90.80;;;;;;6306950;22;20580;-82
2022/03/22 04:02:22;;;;;;;11.90;8.30;;;12.10;90.70;;;;;;6279535;22;20610;-81
2022/03/22 04:04:51;;;;;;;18.80;9.13;;;12.40;90.10;;;;;;6279638;22;20146;-82
2022/03/22 04:07:22;;;;;;;13.57;8.60;;;12.50;89.80;;;;;;6279598;22;20173;-82
2022/03/22 04:09:49;;;;;;;15.37;8.57;;;12.50;89.60;;;;;;6279752;22;20146;-83
2022/03/22 04:12:15;;;;;;;14.67;9.37;;;12.50;89.60;;;;;;6279281;22;20570;-82
2022/03/22 04:14:41;;;;;;;12.90;8.50;;;12.50;89.30;;;;;;6279658;22;20185;-83
2022/03/22 04:17:10;;;;;;;11.57;7.83;;;12.40;89.50;;;;;;6279234;22;20150;-81
2022/03/22 04:19:36;;;;;;;14.10;8.27;;;12.50;89.00;;;;;;6279671;22;20141;-83
2022/03/22 04:22:03;;;;;;;14.23;8.57;;;12.50;89.30;;;;;;6279337;22;20570;-82
2022/03/22 04:24:29;;;;;;;12.50;8.33;;;12.40;89.60;;;;;;6279505;22;20184;-81
2022/03/22 04:32:41;;;;;;;14.30;9.13;;;12.30;89.90;;;;;;6278836;22;20184;-82
2022/03/22 04:32:43;;;;;;;14.77;9.37;;;11.80;90.90;;;;;;6306670;22;20585;-81
2022/03/22 04:35:14;;;;;;;13.83;8.73;;;11.80;91.00;;;;;;6279285;22;20145;-82
2022/03/22 04:37:40;;;;;;;13.30;7.90;;;11.90;90.70;;;;;;6279256;22;20582;-81
2022/03/22 04:40:07;;;;;;;12.90;8.63;;;11.90;90.70;;;;;;6306543;22;20173;-82
2022/03/22 04:42:33;;;;;;;12.90;8.93;;;12.20;90.00;;;;;;6306718;22;20142;-82
2022/03/22 04:44:59;;;;;;;13.40;8.53;;;12.00;90.30;;;;;;6306704;22;20138;-81
2022/03/22 04:47:26;;;;;;;13.57;9.27;;;12.00;90.50;;;;;;6279247;22;20285;-81
2022/03/22 04:49:52;;;;;;;13.37;7.73;;;12.00;90.30;;;;;;6282470;22;20146;-88
2022/03/22 04:57:45;;;;;;;11.20;8.87;;;12.00;90.30;;;;;;6308899;22;20144;-82
2022/03/22 05:00:12;;;;;;;14.97;8.90;;;11.90;90.70;;;;;;6308839;22;20220;-82
2022/03/22 05:02:38;;;;;;;15.03;9.40;;;11.80;90.90;;;;;;6281560;22;20173;-82
2022/03/22 05:05:04;;;;;;;13.70;8.40;;;11.70;91.00;;;;;;6308879;22;20143;-82
2022/03/22 05:07:29;;;;;;;16.13;9.37;;;11.40;92.00;;;;;;6281067;22;20235;-82
2022/03/22 05:09:55;;;;;;;17.40;9.40;;;11.30;92.00;;;;;;6280915;22;20246;-82
2022/03/22 05:12:21;;;;;;;13.90;8.87;;;11.30;92.20;;;;;;6308466;22;20436;-82
2022/03/22 05:14:50;;;;;;;16.93;9.07;;;11.30;92.10;;;;;;6281301;22;20157;-82
2022/03/22 05:17:21;;;;;;;12.77;8.70;;;11.20;92.40;;;;;;6308474;22;20130;-83
2022/03/22 05:19:49;;;;;;;15.03;9.10;;;11.10;92.40;;;;;;6308670;22;20215;-83
2022/03/22 05:22:15;;;;;;;12.77;9.33;;;11.00;92.60;;;;;;6280985;22;20188;-82
2022/03/22 05:24:41;;;;;;;14.60;9.20;;;11.30;92.20;;;;;;6280820;22;20167;-82
2022/03/22 05:27:07;;;;;;;16.93;9.30;;;11.20;92.30;;;;;;6308075;22;20173;-82
2022/03/22 05:29:33;;;;;;;16.37;9.80;;;11.10;92.50;;;;;;6280946;22;20176;-82
2022/03/22 05:31:59;;;;;;;13.87;8.97;;;11.10;92.50;;;;;;6281027;22;20173;-83
2022/03/22 05:34:24;;;;;;;15.20;9.43;;;11.10;92.40;;;;;;6280885;22;20142;-82
2022/03/22 05:36:50;;;;;;;15.83;9.03;;;11.10;92.50;;;;;;6281032;22;20143;-83
2022/03/22 05:39:16;;;;;;;18.03;9.70;;;11.00;92.60;;;;;;6308077;22;20142;-82
2022/03/22 05:41:41;;;;;;;14.17;9.73;;;11.00;92.80;;;;;;6281173;22;20640;-82
2022/03/22 05:44:10;;;;;;;16.13;9.53;;;10.90;93.10;;;;;;6280835;22;20157;-82
2022/03/22 05:46:35;;;;;;;15.90;9.60;;;10.80;93.40;;;;;;6308368;22;20540;-82
2022/03/22 05:49:01;;;;;;;16.93;9.93;;;10.80;93.70;;;;;;6308233;22;20157;-83
2022/03/22 05:51:26;;;;;;;16.03;10.30;;;10.80;93.50;;;;;;6279725;22;20159;-82
2022/03/22 05:53:52;;;;;;;14.07;10.23;;;10.90;93.40;;;;;;6280148;22;20573;-82
2022/03/22 05:56:18;;;;;;;18.60;10.93;;;10.80;93.60;;;;;;6307817;22;20134;-81
2022/03/22 05:58:43;;;;;;;16.63;10.33;;;10.90;93.50;;;;;;6308006;22;20142;-82
2022/03/22 06:01:09;;;;;;;19.53;11.27;;;10.80;93.60;;;;;;6279890;22;20194;-82
2022/03/22 06:03:35;;;;;;;14.97;10.03;;;10.80;93.80;;;;;;6280469;22;20145;-82
2022/03/22 06:06:01;;;;;;;19.97;11.47;;;10.60;94.00;;;;;;6280498;22;20573;-82
2022/03/22 06:08:29;;;;;;;19.17;11.20;;;10.60;94.00;;;;;;6280031;22;20237;-83
2022/03/22 06:10:55;;;;;;;17.33;11.23;;;10.60;94.20;;;;;;6280433;22;20153;-81
2022/03/22 06:13:21;;;;;;;21.30;11.60;;;10.70;93.90;;;;;;6279450;22;20165;-83
2022/03/22 06:15:46;;;;;;;20.53;11.73;;;10.90;93.50;;;;;;6280386;22;20150;-83
2022/03/22 06:18:12;;;;;;;21.73;12.23;;;10.90;93.80;;;;;;6280454;22;20857;-82
2022/03/22 06:20:41;;;;;;;24.67;11.60;;;10.90;93.80;;;;;;6280508;22;20149;-83
2022/03/22 06:23:08;;;;;;;18.97;12.50;;;11.10;93.20;;;;;;6306737;22;20599;-82
2022/03/22 06:25:34;;;;;;;21.33;11.93;;;11.20;93.10;;;;;;6280173;22;20174;-83
2022/03/22 06:28:00;;;;;;;19.00;11.70;;;11.20;93.10;;;;;;6280267;22;20671;-82
2022/03/22 06:30:27;;;;;;;20.17;12.17;;;11.10;93.10;;;;;;6307806;22;20132;-82
2022/03/22 06:32:54;;;;;;;21.87;12.00;;;10.90;93.80;;;;;;6280122;22;20161;-82
2022/03/22 06:35:23;;;;;;;21.20;11.33;;;10.90;94.20;;;;;;6307395;22;20127;-82
2022/03/22 06:37:49;;;;;;;20.63;11.63;;;10.80;94.70;;;;;;6279541;22;20559;-82
2022/03/22 06:40:17;;;;;;;20.97;12.43;;;10.80;94.70;;;;;;6280161;22;20150;-83
2022/03/22 06:42:43;;;;;;;22.73;11.83;;;10.80;94.50;;;;;;6280212;22;20156;-85
2022/03/22 06:58:52;;;;;;;22.40;13.30;;;11.30;93.30;;;;;;6287653;22;20205;-82
2022/03/22 07:01:18;;;;;;;21.73;12.80;;;11.30;93.20;;;;;;6306933;22;20143;-83
2022/03/22 07:03:44;;;;;;;19.93;13.43;;;11.50;93.10;;;;;;6305679;22;20146;-85
2022/03/22 07:06:09;;;;;;;22.67;13.13;;;11.60;92.80;;;;;;6305381;22;20185;-83
2022/03/22 07:08:35;;;;;;;20.87;13.43;;;11.50;92.70;;;;;;6306037;22;20207;-83
2022/03/22 07:13:45;;;;;;;19.53;12.73;;;11.70;93.20;;;;;;6307934;22;20145;-93
2022/03/22 07:16:11;;;;;;;21.67;12.60;;;11.70;93.00;;;;;;6307101;22;20178;-92
2022/03/22 07:18:36;;;;;;;21.80;12.97;;;11.90;92.50;;;;;;6305855;22;20479;-93
2022/03/22 07:21:04;;;;;;;24.63;13.37;;;11.90;92.20;;;;;;6306313;22;20227;-92
2022/03/22 07:23:30;;;;;;;25.13;13.47;;;12.10;90.90;;;;;;6306347;22;20157;-93
2022/03/22 07:25:56;;;;;;;21.90;13.50;;;12.30;89.90;;;;;;6280335;22;20166;-93
2022/03/22 07:28:22;;;;;;;28.13;12.63;;;12.30;90.10;;;;;;6307471;22;20266;-93
2022/03/22 07:30:47;;;;;;;25.07;12.57;;;12.60;88.60;;;;;;6307238;22;20209;-93
2022/03/22 07:39:57;;;;;;;26.37;13.00;;;13.10;84.70;;;;;;6324727;22;20211;-90
2022/03/22 07:42:27;;;;;;;23.73;12.43;;;13.00;85.60;;;;;;6311098;22;20147;-90
2022/03/22 07:44:58;;;;;;;21.37;12.57;;;13.00;85.60;;;;;;6339299;22;20146;-92
2022/03/22 07:47:24;;;;;;;19.47;12.40;;;13.20;86.00;;;;;;6338874;22;20188;-92
2022/03/22 07:55:19;;;;;;;21.53;12.83;;;13.20;86.10;;;;;;6338979;22;20467;-92
2022/03/22 07:57:45;;;;;;;18.63;12.93;;;13.20;88.70;;;;;;6312732;22;20145;-92
2022/03/22 08:00:11;;;;;;;24.10;12.60;;;13.40;84.10;;;;;;6312278;22;20210;-89
2022/03/22 08:02:37;;;;;;;21.03;13.10;;;13.60;82.40;;;;;;6311461;22;20177;-91
2022/03/22 08:05:06;;;;;;;29.70;13.53;;;13.70;82.50;;;;;;6311725;22;20643;-93
2022/03/22 08:07:32;;;;;;;20.20;11.93;;;13.90;82.70;;;;;;6311411;22;20173;-88
2022/03/22 08:09:58;;;;;;;23.40;12.70;;;13.90;83.60;;;;;;6310530;22;20157;-88
2022/03/22 08:12:23;;;;;;;22.53;12.23;;;14.30;79.80;;;;;;6311485;22;20148;-88
2022/03/22 08:14:49;;;;;;;21.23;12.20;;;14.30;79.30;;;;;;6311783;22;20202;-88
2022/03/22 08:17:14;;;;;;;19.53;11.50;;;14.30;79.50;;;;;;6311220;22;20148;-88
2022/03/22 08:19:40;;;;;;;22.00;11.40;;;14.20;79.50;;;;;;6311788;22;20569;-88
2022/03/22 08:22:05;;;;;;;22.90;12.00;;;14.30;78.70;;;;;;6311492;22;20562;-88
2022/03/22 08:24:31;;;;;;;19.80;12.20;;;14.60;78.10;;;;;;6311892;22;20237;-88
2022/03/22 08:26:57;;;;;;;20.63;11.47;;;14.60;78.60;;;;;;6311409;22;20181;-88
2022/03/22 08:29:24;;;;;;;21.30;12.47;;;14.80;77.10;;;;;;6311696;22;20174;-88
2022/03/22 08:31:52;;;;;;;20.03;11.73;;;14.80;77.20;;;;;;6311314;22;20179;-88
2022/03/22 08:34:19;;;;;;;21.47;12.00;;;14.80;77.90;;;;;;6311701;22;20190;-90
2022/03/22 08:36:45;;;;;;;26.30;12.60;;;15.10;75.10;;;;;;6311572;22;20214;-90
2022/03/22 08:39:11;;;;;;;19.90;13.03;;;15.30;73.90;;;;;;6311498;22;20569;-91
2022/03/22 08:41:39;;;;;;;21.13;11.73;;;15.50;73.20;;;;;;6311694;22;20152;-90
2022/03/22 08:44:05;;;;;;;19.37;12.77;;;15.50;73.40;;;;;;6312546;22;20224;-90
2022/03/22 10:19:56;;;;;;;24.73;12.43;;;17.50;67.40;;;;;;6315712;22;20428;-94
2022/03/22 10:22:39;;;;;;;21.00;11.97;;;17.50;67.60;;;;;;6313609;22;20189;-95
2022/03/22 10:25:10;;;;;;;20.90;13.00;;;17.70;65.80;;;;;;6314812;22;20242;-93
2022/03/22 10:27:48;;;;;;;20.63;11.07;;;18.20;64.50;;;;;;6314122;22;20188;-95
2022/03/22 10:30:44;;;;;;;;;;;;;;;;;;;;;
2022/03/22 10:33:15;;;;;;;21.90;11.63;;;18.00;64.30;;;;;;6354968;22;20165;-95
2022/03/22 10:36:32;;;;;;;;;;;;;;;;;;;;;
2022/03/22 10:43:50;;;;;;;;;;;;;;;;;;;;;
2022/03/22 11:12:33;;;;;;;23.67;12.27;;;23.70;58.20;;;;;;5924974;24;20661;-95
2022/03/22 11:15:27;;;;;;;;;;;;;;;;;;;;;
2022/03/22 11:18:52;;;;;;;;;;;;;;;;;;;;;
2022/03/22 11:29:33;;;;;;;19.00;12.23;;;28.00;50.80;;;;;;5993035;23;20618;-95
2022/03/22 11:46:45;;;;;;;17.35;11.55;;;30.10;48.70;;;;;;6061833;23;20159;-92
2022/03/22 11:53:33;;;;;;;;;;;;;;;;;;;;;
2022/03/22 11:56:30;;;;;;;;;;;;;;;;;;;;;
2022/03/22 11:59:57;;;;;;;;;;;;;;;;;;;;;
2022/03/22 12:22:59;;;;;;;;;;;;;;;;;;;;;
2022/03/22 12:26:09;;;;;;;;;;;;;;;;;;;;;
2022/03/22 12:33:21;;;;;;;;;;;;;;;;;;;;;
2022/03/22 19:09:09;;;;;;;18.50;9.40;;;21.70;45.70;;;;;;6125120;22;20203;-94
2022/03/22 19:23:09;;;;;;;;;;;;;;;;;;;;;
2022/03/22 19:26:48;;;;;;;;;;;;;;;;;;;;;
2022/03/22 19:59:38;;;;;;;17.23;10.93;;;20.00;45.60;;;;;;6169277;22;20204;-91
2022/03/22 20:21:21;;;;;;;;;;;;;;;;;;;;;
2022/03/22 20:31:54;;;;;;;;;;;;;;;;;;;;;
2022/03/22 20:45:52;;;;;;;17.40;11.37;;;18.80;47.10;;;;;;5898645;24;20170;-95
